sensor_id;sensor_type;location;lat;lon;timestamp;pressure;altitude;pressure_sealevel;temperature;humidity
54556;BME280;57291;37.520;15.106;2023-02-21T00:02:15;102215.09;;;11.12;86.75
54556;BME280;57291;37.520;15.106;2023-02-21T00:05:01;102213.69;;;11.10;86.64
54556;BME280;57291;37.520;15.106;2023-02-21T00:07:47;102210.69;;;11.06;87.01
54556;BME280;57291;37.520;15.106;2023-02-21T00:10:32;102211.44;;;11.01;87.23
54556;BME280;57291;37.520;15.106;2023-02-21T00:13:18;102214.97;;;10.97;87.10
54556;BME280;57291;37.520;15.106;2023-02-21T00:16:04;102214.41;;;10.95;87.54
54556;BME280;57291;37.520;15.106;2023-02-21T00:18:49;102220.13;;;10.93;87.43
54556;BME280;57291;37.520;15.106;2023-02-21T00:21:35;102214.38;;;10.90;87.44
54556;BME280;57291;37.520;15.106;2023-02-21T00:24:21;102210.84;;;10.89;87.41
54556;BME280;57291;37.520;15.106;2023-02-21T00:27:06;102217.09;;;10.90;87.45
54556;BME280;57291;37.520;15.106;2023-02-21T00:29:52;102208.16;;;10.94;86.90
54556;BME280;57291;37.520;15.106;2023-02-21T00:32:38;102208.72;;;10.96;86.49
54556;BME280;57291;37.520;15.106;2023-02-21T00:35:23;102212.78;;;10.94;85.71
54556;BME280;57291;37.520;15.106;2023-02-21T00:38:09;102208.97;;;10.95;85.07
54556;BME280;57291;37.520;15.106;2023-02-21T00:40:55;102200.25;;;10.93;84.12
54556;BME280;57291;37.520;15.106;2023-02-21T00:43:42;102203.78;;;10.93;83.27
54556;BME280;57291;37.520;15.106;2023-02-21T00:46:28;102196.97;;;10.91;82.34
54556;BME280;57291;37.520;15.106;2023-02-21T00:49:14;102204.03;;;10.87;81.88
54556;BME280;57291;37.520;15.106;2023-02-21T00:52:00;102201.81;;;10.84;81.59
54556;BME280;57291;37.520;15.106;2023-02-21T00:54:45;102200.44;;;10.81;81.15
54556;BME280;57291;37.520;15.106;2023-02-21T00:57:31;102199.06;;;10.78;81.03
54556;BME280;57291;37.520;15.106;2023-02-21T01:00:22;102199.28;;;10.72;80.96
54556;BME280;57291;37.520;15.106;2023-02-21T01:03:08;102194.88;;;10.66;81.05
54556;BME280;57291;37.520;15.106;2023-02-21T01:05:56;102198.38;;;10.61;80.93
54556;BME280;57291;37.520;15.106;2023-02-21T01:08:43;102188.28;;;10.56;80.93
54556;BME280;57291;37.520;15.106;2023-02-21T01:11:30;102190.75;;;10.58;80.94
54556;BME280;57291;37.520;15.106;2023-02-21T01:14:17;102189.94;;;10.63;80.79
54556;BME280;57291;37.520;15.106;2023-02-21T01:17:03;102180.75;;;10.69;80.39
54556;BME280;57291;37.520;15.106;2023-02-21T01:19:48;102180.75;;;10.69;80.04
54556;BME280;57291;37.520;15.106;2023-02-21T01:22:34;102172.59;;;10.69;79.85
54556;BME280;57291;37.520;15.106;2023-02-21T01:25:20;102170.44;;;10.71;79.81
54556;BME280;57291;37.520;15.106;2023-02-21T01:28:06;102169.63;;;10.70;79.78
54556;BME280;57291;37.520;15.106;2023-02-21T01:30:52;102163.91;;;10.72;79.82
54556;BME280;57291;37.520;15.106;2023-02-21T01:33:40;102165.00;;;10.71;79.89
54556;BME280;57291;37.520;15.106;2023-02-21T01:36:26;102164.44;;;10.69;80.09
54556;BME280;57291;37.520;15.106;2023-02-21T01:39:13;102163.09;;;10.66;79.87
54556;BME280;57291;37.520;15.106;2023-02-21T01:41:59;102157.59;;;10.61;80.26
54556;BME280;57291;37.520;15.106;2023-02-21T01:44:47;102156.72;;;10.55;80.46
54556;BME280;57291;37.520;15.106;2023-02-21T01:47:33;102158.09;;;10.53;80.76
54556;BME280;57291;37.520;15.106;2023-02-21T01:53:14;102149.72;;;10.60;80.39
54556;BME280;57291;37.520;15.106;2023-02-21T01:56:03;102145.41;;;10.69;78.02
54556;BME280;57291;37.520;15.106;2023-02-21T01:58:53;102148.69;;;10.71;77.38
54556;BME280;57291;37.520;15.106;2023-02-21T02:02:01;102145.69;;;10.67;76.96
54556;BME280;57291;37.520;15.106;2023-02-21T02:04:49;102152.47;;;10.65;76.94
54556;BME280;57291;37.520;15.106;2023-02-21T02:07:36;102146.44;;;10.63;76.93
54556;BME280;57291;37.520;15.106;2023-02-21T02:10:22;102141.06;;;10.68;76.32
54556;BME280;57291;37.520;15.106;2023-02-21T02:13:33;102134.25;;;10.65;76.00
54556;BME280;57291;37.520;15.106;2023-02-21T02:36:05;102129.00;;;10.53;75.97
54556;BME280;57291;37.520;15.106;2023-02-21T02:43:54;102125.06;;;10.39;76.06
54556;BME280;57291;37.520;15.106;2023-02-21T02:46:28;102124.47;;;10.32;76.15
54556;BME280;57291;37.520;15.106;2023-02-21T02:49:08;102119.00;;;10.27;76.40
54556;BME280;57291;37.520;15.106;2023-02-21T02:51:36;102118.94;;;10.22;76.15
54556;BME280;57291;37.520;15.106;2023-02-21T02:54:06;102115.03;;;10.13;76.48
54556;BME280;57291;37.520;15.106;2023-02-21T02:56:33;102122.06;;;10.08;76.60
54556;BME280;57291;37.520;15.106;2023-02-21T02:59:10;102121.19;;;10.03;76.78
54556;BME280;57291;37.520;15.106;2023-02-21T03:05:38;102121.97;;;9.98;76.75
54556;BME280;57291;37.520;15.106;2023-02-21T03:08:17;102119.25;;;9.98;76.82
54556;BME280;57291;37.520;15.106;2023-02-21T03:16:38;102108.41;;;9.98;76.62
54556;BME280;57291;37.520;15.106;2023-02-21T03:19:13;102115.97;;;9.96;76.79
54556;BME280;57291;37.520;15.106;2023-02-21T03:22:05;102109.41;;;9.92;77.02
54556;BME280;57291;37.520;15.106;2023-02-21T03:24:37;102100.41;;;9.86;77.21
54556;BME280;57291;37.520;15.106;2023-02-21T03:27:07;102105.53;;;9.83;77.32
54556;BME280;57291;37.520;15.106;2023-02-21T03:29:50;102109.03;;;9.78;77.60
54556;BME280;57291;37.520;15.106;2023-02-21T03:32:36;102104.09;;;9.75;77.77
54556;BME280;57291;37.520;15.106;2023-02-21T03:35:05;102103.78;;;9.72;77.96
54556;BME280;57291;37.520;15.106;2023-02-21T03:40:07;102110.31;;;9.71;78.22
54556;BME280;57291;37.520;15.106;2023-02-21T03:42:35;102114.34;;;9.68;78.33
54556;BME280;57291;37.520;15.106;2023-02-21T03:45:03;102113.03;;;9.71;78.40
54556;BME280;57291;37.520;15.106;2023-02-21T03:47:31;102112.47;;;9.74;78.56
54556;BME280;57291;37.520;15.106;2023-02-21T03:49:59;102111.72;;;9.78;78.19
54556;BME280;57291;37.520;15.106;2023-02-21T03:52:26;102115.25;;;9.79;78.06
54556;BME280;57291;37.520;15.106;2023-02-21T03:54:53;102115.00;;;9.80;78.21
54556;BME280;57291;37.520;15.106;2023-02-21T03:57:23;102116.91;;;9.80;77.97
54556;BME280;57291;37.520;15.106;2023-02-21T03:59:51;102116.91;;;9.80;77.78
54556;BME280;57291;37.520;15.106;2023-02-21T04:02:18;102110.91;;;9.78;77.85
54556;BME280;57291;37.520;15.106;2023-02-21T04:04:46;102113.06;;;9.76;77.74
54556;BME280;57291;37.520;15.106;2023-02-21T04:07:19;102104.91;;;9.76;78.01
54556;BME280;57291;37.520;15.106;2023-02-21T04:09:48;102112.47;;;9.74;77.84
54556;BME280;57291;37.520;15.106;2023-02-21T04:12:24;102110.84;;;9.73;77.93
54556;BME280;57291;37.520;15.106;2023-02-21T04:14:51;102107.06;;;9.74;77.97
54556;BME280;57291;37.520;15.106;2023-02-21T04:17:18;102106.25;;;9.73;77.85
54556;BME280;57291;37.520;15.106;2023-02-21T04:19:46;102109.72;;;9.69;77.80
54556;BME280;57291;37.520;15.106;2023-02-21T04:22:13;102108.59;;;9.65;77.98
54556;BME280;57291;37.520;15.106;2023-02-21T04:24:42;102111.56;;;9.63;78.21
54556;BME280;57291;37.520;15.106;2023-02-21T04:27:10;102108.03;;;9.62;78.20
54556;BME280;57291;37.520;15.106;2023-02-21T04:29:42;102110.16;;;9.60;78.41
54556;BME280;57291;37.520;15.106;2023-02-21T04:32:10;102100.41;;;9.59;77.81
54556;BME280;57291;37.520;15.106;2023-02-21T04:34:37;102103.38;;;9.58;78.28
54556;BME280;57291;37.520;15.106;2023-02-21T04:37:05;102105.25;;;9.57;78.30
54556;BME280;57291;37.520;15.106;2023-02-21T04:39:32;102099.28;;;9.55;78.15
54556;BME280;57291;37.520;15.106;2023-02-21T04:41:59;102098.69;;;9.53;78.45
54556;BME280;57291;37.520;15.106;2023-02-21T04:44:28;102101.91;;;9.50;78.31
54556;BME280;57291;37.520;15.106;2023-02-21T04:46:55;102096.75;;;9.49;78.63
54556;BME280;57291;37.520;15.106;2023-02-21T04:49:22;102105.63;;;9.44;78.74
54556;BME280;57291;37.520;15.106;2023-02-21T04:51:53;102100.75;;;9.41;78.76
54556;BME280;57291;37.520;15.106;2023-02-21T04:54:21;102102.88;;;9.39;79.02
54556;BME280;57291;37.520;15.106;2023-02-21T04:56:48;102094.75;;;9.39;79.04
54556;BME280;57291;37.520;15.106;2023-02-21T04:59:15;102095.31;;;9.41;79.08
54556;BME280;57291;37.520;15.106;2023-02-21T05:01:42;102095.56;;;9.39;78.76
54556;BME280;57291;37.520;15.106;2023-02-21T05:04:09;102091.47;;;9.37;78.86
54556;BME280;57291;37.520;15.106;2023-02-21T05:06:37;102100.69;;;9.36;78.98
54556;BME280;57291;37.520;15.106;2023-02-21T05:09:04;102099.28;;;9.33;78.80
54556;BME280;57291;37.520;15.106;2023-02-21T05:11:33;102104.97;;;9.32;78.87
54556;BME280;57291;37.520;15.106;2023-02-21T05:14:03;102101.69;;;9.30;78.91
54556;BME280;57291;37.520;15.106;2023-02-21T05:16:30;102095.19;;;9.31;78.93
54556;BME280;57291;37.520;15.106;2023-02-21T05:18:57;102097.97;;;9.36;78.84
54556;BME280;57291;37.520;15.106;2023-02-21T05:21:24;102094.75;;;9.39;78.75
54556;BME280;57291;37.520;15.106;2023-02-21T05:23:51;102090.94;;;9.40;78.60
54556;BME280;57291;37.520;15.106;2023-02-21T05:26:33;102089.63;;;9.43;78.30
54556;BME280;57291;37.520;15.106;2023-02-21T05:29:01;102088.31;;;9.45;78.20
54556;BME280;57291;37.520;15.106;2023-02-21T05:31:29;102089.69;;;9.48;78.03
54556;BME280;57291;37.520;15.106;2023-02-21T05:33:57;102088.84;;;9.47;77.67
54556;BME280;57291;37.520;15.106;2023-02-21T05:36:24;102087.81;;;9.48;77.61
54556;BME280;57291;37.520;15.106;2023-02-21T05:38:53;102086.13;;;9.47;77.40
54556;BME280;57291;37.520;15.106;2023-02-21T05:41:22;102084.00;;;9.49;77.33
54556;BME280;57291;37.520;15.106;2023-02-21T05:43:49;102086.22;;;9.52;77.26
54556;BME280;57291;37.520;15.106;2023-02-21T05:46:28;102088.78;;;9.64;77.44
54556;BME280;57291;37.520;15.106;2023-02-21T05:48:57;102080.53;;;9.81;77.25
54556;BME280;57291;37.520;15.106;2023-02-21T05:51:25;102084.31;;;10.07;77.01
54556;BME280;57291;37.520;15.106;2023-02-21T05:53:53;102076.97;;;10.40;76.68
54556;BME280;57291;37.520;15.106;2023-02-21T05:56:20;102076.13;;;10.76;75.37
54556;BME280;57291;37.520;15.106;2023-02-21T05:58:48;102079.31;;;11.16;73.09
54556;BME280;57291;37.520;15.106;2023-02-21T06:01:15;102089.25;;;11.63;72.27
54556;BME280;57291;37.520;15.106;2023-02-21T06:03:42;102080.06;;;12.10;70.87
54556;BME280;57291;37.520;15.106;2023-02-21T06:06:10;102078.66;;;12.53;69.35
54556;BME280;57291;37.520;15.106;2023-02-21T06:08:46;102079.09;;;13.01;66.86
54556;BME280;57291;37.520;15.106;2023-02-21T06:11:14;102083.03;;;13.45;65.23
54556;BME280;57291;37.520;15.106;2023-02-21T06:13:42;102084.34;;;13.92;64.64
54556;BME280;57291;37.520;15.106;2023-02-21T06:16:09;102070.56;;;14.41;63.52
54556;BME280;57291;37.520;15.106;2023-02-21T06:18:36;102072.78;;;14.92;61.87
54556;BME280;57291;37.520;15.106;2023-02-21T06:21:04;102077.13;;;15.17;59.23
54556;BME280;57291;37.520;15.106;2023-02-21T06:23:31;102073.47;;;15.65;57.72
54556;BME280;57291;37.520;15.106;2023-02-21T06:25:58;102084.28;;;16.13;56.57
54556;BME280;57291;37.520;15.106;2023-02-21T06:28:29;102078.63;;;16.37;53.26
54556;BME280;57291;37.520;15.106;2023-02-21T06:30:56;102083.88;;;16.66;53.40
54556;BME280;57291;37.520;15.106;2023-02-21T06:33:23;102085.09;;;17.29;53.62
54556;BME280;57291;37.520;15.106;2023-02-21T06:35:51;102085.66;;;17.67;50.99
54556;BME280;57291;37.520;15.106;2023-02-21T06:38:18;102092.00;;;18.13;50.64
54556;BME280;57291;37.520;15.106;2023-02-21T06:40:45;102101.34;;;18.65;49.61
54556;BME280;57291;37.520;15.106;2023-02-21T06:43:12;102088.19;;;18.76;48.21
54556;BME280;57291;37.520;15.106;2023-02-21T06:45:40;102088.56;;;19.01;47.01
54556;BME280;57291;37.520;15.106;2023-02-21T06:48:07;102094.59;;;19.11;45.91
54556;BME280;57291;37.520;15.106;2023-02-21T06:50:34;102106.22;;;18.68;47.09
54556;BME280;57291;37.520;15.106;2023-02-21T06:53:01;102112.75;;;18.41;47.67
54556;BME280;57291;37.520;15.106;2023-02-21T06:55:28;102113.91;;;18.49;47.86
54556;BME280;57291;37.520;15.106;2023-02-21T06:57:56;102115.56;;;18.81;46.09
54556;BME280;57291;37.520;15.106;2023-02-21T07:00:23;102116.78;;;18.66;45.45
54556;BME280;57291;37.520;15.106;2023-02-21T07:02:52;102113.97;;;18.58;45.18
54556;BME280;57291;37.520;15.106;2023-02-21T07:05:19;102111.84;;;18.55;46.46
54556;BME280;57291;37.520;15.106;2023-02-21T07:07:47;102118.13;;;18.46;46.45
54556;BME280;57291;37.520;15.106;2023-02-21T07:10:14;102111.81;;;18.77;46.87
54556;BME280;57291;37.520;15.106;2023-02-21T07:12:41;102113.50;;;18.64;45.75
54556;BME280;57291;37.520;15.106;2023-02-21T07:15:08;102114.28;;;18.56;45.87
54556;BME280;57291;37.520;15.106;2023-02-21T07:17:35;102125.03;;;18.66;46.15
54556;BME280;57291;37.520;15.106;2023-02-21T07:20:02;102120.97;;;18.64;45.14
54556;BME280;57291;37.520;15.106;2023-02-21T07:22:31;102122.84;;;18.55;45.58
54556;BME280;57291;37.520;15.106;2023-02-21T07:24:58;102114.41;;;18.51;45.48
54556;BME280;57291;37.520;15.106;2023-02-21T07:27:25;102122.03;;;18.54;45.72
54556;BME280;57291;37.520;15.106;2023-02-21T07:29:52;102114.69;;;18.41;46.11
54556;BME280;57291;37.520;15.106;2023-02-21T07:32:19;102113.44;;;18.56;46.22
54556;BME280;57291;37.520;15.106;2023-02-21T07:34:48;102119.09;;;18.73;46.05
54556;BME280;57291;37.520;15.106;2023-02-21T07:37:15;102109.56;;;18.79;46.38
54556;BME280;57291;37.520;15.106;2023-02-21T07:39:42;102109.00;;;18.68;45.68
54556;BME280;57291;37.520;15.106;2023-02-21T07:42:09;102104.22;;;18.51;44.84
54556;BME280;57291;37.520;15.106;2023-02-21T07:44:44;102110.75;;;18.33;49.17
54556;BME280;57291;37.520;15.106;2023-02-21T07:47:11;102107.75;;;17.62;51.47
54556;BME280;57291;37.520;15.106;2023-02-21T07:49:39;102112.09;;;16.85;53.85
54556;BME280;57291;37.520;15.106;2023-02-21T07:52:06;102106.16;;;15.99;55.08
54556;BME280;57291;37.520;15.106;2023-02-21T07:54:33;102112.66;;;15.46;55.65
54556;BME280;57291;37.520;15.106;2023-02-21T07:57:01;102102.41;;;15.09;57.28
54556;BME280;57291;37.520;15.106;2023-02-21T07:59:29;102110.91;;;14.84;57.39
54556;BME280;57291;37.520;15.106;2023-02-21T08:01:57;102107.22;;;14.40;59.45
54556;BME280;57291;37.520;15.106;2023-02-21T08:04:24;102098.97;;;14.45;59.24
54556;BME280;57291;37.520;15.106;2023-02-21T08:06:58;102096.81;;;14.42;60.34
54556;BME280;57291;37.520;15.106;2023-02-21T08:09:26;102098.50;;;14.38;60.38
54556;BME280;57291;37.520;15.106;2023-02-21T08:11:53;102110.53;;;14.37;60.60
54556;BME280;57291;37.520;15.106;2023-02-21T08:14:20;102103.47;;;14.31;59.90
54556;BME280;57291;37.520;15.106;2023-02-21T08:16:47;102099.91;;;14.30;60.37
54556;BME280;57291;37.520;15.106;2023-02-21T08:19:15;102101.06;;;14.24;60.27
54556;BME280;57291;37.520;15.106;2023-02-21T08:21:46;102090.41;;;14.23;60.46
54556;BME280;57291;37.520;15.106;2023-02-21T08:24:14;102104.44;;;14.11;60.26
54556;BME280;57291;37.520;15.106;2023-02-21T08:26:42;102103.78;;;14.24;59.92
54556;BME280;57291;37.520;15.106;2023-02-21T08:29:12;102090.88;;;14.35;59.04
54556;BME280;57291;37.520;15.106;2023-02-21T08:31:41;102091.00;;;14.49;59.00
54556;BME280;57291;37.520;15.106;2023-02-21T08:34:10;102089.59;;;14.57;58.54
54556;BME280;57291;37.520;15.106;2023-02-21T08:36:40;102082.50;;;14.56;58.84
54556;BME280;57291;37.520;15.106;2023-02-21T08:39:09;102084.88;;;14.62;58.19
54556;BME280;57291;37.520;15.106;2023-02-21T08:41:45;102082.03;;;14.72;59.42
54556;BME280;57291;37.520;15.106;2023-02-21T08:44:15;102077.25;;;14.83;58.95
54556;BME280;57291;37.520;15.106;2023-02-21T08:46:43;102086.41;;;14.97;58.19
54556;BME280;57291;37.520;15.106;2023-02-21T08:49:10;102083.38;;;14.99;59.34
54556;BME280;57291;37.520;15.106;2023-02-21T08:51:38;102077.63;;;15.00;59.43
54556;BME280;57291;37.520;15.106;2023-02-21T08:54:06;102073.59;;;14.93;60.82
54556;BME280;57291;37.520;15.106;2023-02-21T08:56:33;102068.66;;;14.95;61.72
54556;BME280;57291;37.520;15.106;2023-02-21T08:59:00;102069.69;;;14.99;60.93
54556;BME280;57291;37.520;15.106;2023-02-21T09:01:32;102063.59;;;15.07;62.61
54556;BME280;57291;37.520;15.106;2023-02-21T09:04:02;102063.28;;;15.09;61.23
54556;BME280;57291;37.520;15.106;2023-02-21T09:06:29;102062.09;;;15.15;60.23
54556;BME280;57291;37.520;15.106;2023-02-21T09:08:57;102064.44;;;15.02;60.67
54556;BME280;57291;37.520;15.106;2023-02-21T09:11:24;102060.00;;;15.07;61.45
54556;BME280;57291;37.520;15.106;2023-02-21T09:13:51;102051.53;;;15.27;62.86
54556;BME280;57291;37.520;15.106;2023-02-21T09:16:21;102049.63;;;15.28;62.06
54556;BME280;57291;37.520;15.106;2023-02-21T09:18:56;102048.94;;;15.36;62.90
54556;BME280;57291;37.520;15.106;2023-02-21T09:21:25;102044.50;;;15.59;62.06
54556;BME280;57291;37.520;15.106;2023-02-21T09:23:54;102046.06;;;15.84;59.41
54556;BME280;57291;37.520;15.106;2023-02-21T09:26:22;102042.47;;;16.02;60.19
54556;BME280;57291;37.520;15.106;2023-02-21T09:28:51;102037.75;;;16.22;60.31
54556;BME280;57291;37.520;15.106;2023-02-21T09:31:19;102033.38;;;16.21;60.55
54556;BME280;57291;37.520;15.106;2023-02-21T09:33:47;102034.00;;;16.17;60.17
54556;BME280;57291;37.520;15.106;2023-02-21T09:36:14;102032.59;;;16.34;58.96
54556;BME280;57291;37.520;15.106;2023-02-21T09:38:41;102030.38;;;16.36;58.54
54556;BME280;57291;37.520;15.106;2023-02-21T09:41:11;102027.38;;;16.18;58.41
54556;BME280;57291;37.520;15.106;2023-02-21T09:43:44;102028.66;;;16.40;58.24
54556;BME280;57291;37.520;15.106;2023-02-21T09:46:18;102021.44;;;16.58;57.77
54556;BME280;57291;37.520;15.106;2023-02-21T09:48:47;102009.06;;;16.88;57.41
54556;BME280;57291;37.520;15.106;2023-02-21T09:51:15;102009.66;;;16.71;57.86
54556;BME280;57291;37.520;15.106;2023-02-21T09:53:46;102009.97;;;16.83;57.32
54556;BME280;57291;37.520;15.106;2023-02-21T09:56:30;102009.56;;;16.90;55.90
54556;BME280;57291;37.520;15.106;2023-02-21T09:59:00;102006.19;;;17.43;55.05
54556;BME280;57291;37.520;15.106;2023-02-21T10:01:55;102010.59;;;17.30;56.62
54556;BME280;57291;37.520;15.106;2023-02-21T10:07:03;101997.38;;;17.32;55.76
54556;BME280;57291;37.520;15.106;2023-02-21T10:12:27;101998.34;;;17.73;49.87
54556;BME280;57291;37.520;15.106;2023-02-21T10:20:54;101974.53;;;18.53;45.69
54556;BME280;57291;37.520;15.106;2023-02-21T10:23:26;101973.31;;;18.77;44.43
54556;BME280;57291;37.520;15.106;2023-02-21T10:26:02;101970.88;;;18.75;43.22
54556;BME280;57291;37.520;15.106;2023-02-21T10:28:33;101953.25;;;18.93;43.32
54556;BME280;57291;37.520;15.106;2023-02-21T10:31:05;101954.56;;;18.96;43.87
54556;BME280;57291;37.520;15.106;2023-02-21T10:33:36;101949.06;;;19.22;43.42
54556;BME280;57291;37.520;15.106;2023-02-21T10:36:17;101936.41;;;19.21;41.87
54556;BME280;57291;37.520;15.106;2023-02-21T10:38:57;101945.66;;;19.25;42.37
54556;BME280;57291;37.520;15.106;2023-02-21T10:41:28;101939.16;;;19.21;41.93
54556;BME280;57291;37.520;15.106;2023-02-21T10:44:02;101933.66;;;19.12;42.55
54556;BME280;57291;37.520;15.106;2023-02-21T10:46:39;101928.28;;;19.25;42.01
54556;BME280;57291;37.520;15.106;2023-02-21T10:49:39;101931.38;;;19.40;42.49
54556;BME280;57291;37.520;15.106;2023-02-21T10:52:12;101924.25;;;19.48;42.58
54556;BME280;57291;37.520;15.106;2023-02-21T10:54:40;101914.47;;;19.51;41.47
54556;BME280;57291;37.520;15.106;2023-02-21T10:57:09;101917.44;;;19.37;42.17
54556;BME280;57291;37.520;15.106;2023-02-21T10:59:42;101913.38;;;19.43;41.75
54556;BME280;57291;37.520;15.106;2023-02-21T11:07:39;101898.44;;;19.44;41.20
54556;BME280;57291;37.520;15.106;2023-02-21T11:10:28;101890.47;;;19.60;41.34
54556;BME280;57291;37.520;15.106;2023-02-21T11:13:16;101884.97;;;19.68;41.07
54556;BME280;57291;37.520;15.106;2023-02-21T11:15:44;101879.88;;;19.88;41.12
54556;BME280;57291;37.520;15.106;2023-02-21T11:18:17;101870.47;;;19.80;46.05
54556;BME280;57291;37.520;15.106;2023-02-21T11:21:09;101870.72;;;19.40;41.70
54556;BME280;57291;37.520;15.106;2023-02-21T11:23:53;101870.38;;;19.51;42.42
54556;BME280;57291;37.520;15.106;2023-02-21T11:26:27;101860.28;;;19.72;41.12
54556;BME280;57291;37.520;15.106;2023-02-21T11:29:09;101861.88;;;19.82;46.75
54556;BME280;57291;37.520;15.106;2023-02-21T11:31:37;101854.22;;;19.23;49.85
54556;BME280;57291;37.520;15.106;2023-02-21T11:34:07;101855.06;;;18.80;51.53
54556;BME280;57291;37.520;15.106;2023-02-21T11:36:37;101846.09;;;18.40;51.09
54556;BME280;57291;37.520;15.106;2023-02-21T11:39:15;101832.88;;;18.02;53.99
54556;BME280;57291;37.520;15.106;2023-02-21T11:41:52;101829.78;;;17.95;55.29
54556;BME280;57291;37.520;15.106;2023-02-21T11:53:33;101817.19;;;17.09;56.29
54556;BME280;57291;37.520;15.106;2023-02-21T11:55:36;101810.25;;;17.11;59.15
54556;BME280;57291;37.520;15.106;2023-02-21T11:58:05;101810.69;;;17.05;58.25
54556;BME280;57291;37.520;15.106;2023-02-21T12:00:50;101799.00;;;17.22;57.48
54556;BME280;57291;37.520;15.106;2023-02-21T12:11:32;101788.81;;;17.22;60.02
54556;BME280;57291;37.520;15.106;2023-02-21T12:17:11;101793.72;;;16.80;60.68
54556;BME280;57291;37.520;15.106;2023-02-21T12:39:57;101762.66;;;16.57;67.15
54556;BME280;57291;37.520;15.106;2023-02-21T12:47:31;101754.16;;;16.45;67.97
54556;BME280;57291;37.520;15.106;2023-02-21T12:50:23;101755.94;;;16.63;67.84
54556;BME280;57291;37.520;15.106;2023-02-21T12:52:59;101761.91;;;16.43;67.80
54556;BME280;57291;37.520;15.106;2023-02-21T12:55:41;101761.75;;;16.26;69.47
54556;BME280;57291;37.520;15.106;2023-02-21T12:58:33;101754.94;;;16.23;68.24
54556;BME280;57291;37.520;15.106;2023-02-21T13:01:10;101753.72;;;16.15;68.52
54556;BME280;57291;37.520;15.106;2023-02-21T13:03:52;101754.44;;;16.21;68.94
54556;BME280;57291;37.520;15.106;2023-02-21T13:06:34;101750.81;;;15.98;68.66
54556;BME280;57291;37.520;15.106;2023-02-21T13:11:43;101740.66;;;15.99;68.86
54556;BME280;57291;37.520;15.106;2023-02-21T13:14:16;101743.81;;;15.92;69.98
54556;BME280;57291;37.520;15.106;2023-02-21T13:16:44;101742.31;;;16.00;70.24
54556;BME280;57291;37.520;15.106;2023-02-21T13:19:12;101732.56;;;15.93;70.13
54556;BME280;57291;37.520;15.106;2023-02-21T13:24:47;101730.94;;;15.79;71.86
54556;BME280;57291;37.520;15.106;2023-02-21T13:32:49;101736.97;;;16.17;70.32
54556;BME280;57291;37.520;15.106;2023-02-21T13:35:21;101725.81;;;16.13;69.52
54556;BME280;57291;37.520;15.106;2023-02-21T13:37:51;101728.47;;;16.05;70.98
54556;BME280;57291;37.520;15.106;2023-02-21T13:40:25;101731.81;;;16.02;70.51
54556;BME280;57291;37.520;15.106;2023-02-21T13:43:01;101731.31;;;15.86;71.56
54556;BME280;57291;37.520;15.106;2023-02-21T13:45:29;101735.59;;;15.64;71.98
54556;BME280;57291;37.520;15.106;2023-02-21T13:53:15;101723.31;;;15.48;72.94
54556;BME280;57291;37.520;15.106;2023-02-21T13:58:35;101713.75;;;15.45;73.95
54556;BME280;57291;37.520;15.106;2023-02-21T14:03:40;101701.41;;;15.89;72.53
54556;BME280;57291;37.520;15.106;2023-02-21T14:08:41;101704.03;;;15.81;72.52
54556;BME280;57291;37.520;15.106;2023-02-21T14:11:20;101699.69;;;15.80;72.18
54556;BME280;57291;37.520;15.106;2023-02-21T14:13:50;101696.34;;;15.83;72.45
54556;BME280;57291;37.520;15.106;2023-02-21T14:19:01;101691.69;;;15.69;72.56
54556;BME280;57291;37.520;15.106;2023-02-21T14:26:38;101684.88;;;15.67;72.98
54556;BME280;57291;37.520;15.106;2023-02-21T14:31:55;101684.84;;;15.81;72.36
54556;BME280;57291;37.520;15.106;2023-02-21T14:34:38;101671.25;;;15.62;73.10
54556;BME280;57291;37.520;15.106;2023-02-21T14:37:22;101682.13;;;15.53;73.78
54556;BME280;57291;37.520;15.106;2023-02-21T14:45:43;101675.00;;;15.52;72.24
54556;BME280;57291;37.520;15.106;2023-02-21T14:48:30;101672.25;;;15.52;71.99
54556;BME280;57291;37.520;15.106;2023-02-21T15:00:13;101662.53;;;15.74;69.70
54556;BME280;57291;37.520;15.106;2023-02-21T15:08:19;101656.72;;;15.75;68.84
54556;BME280;57291;37.520;15.106;2023-02-21T15:10:52;101649.94;;;15.73;67.45
54556;BME280;57291;37.520;15.106;2023-02-21T15:13:26;101654.31;;;15.74;67.58
54556;BME280;57291;37.520;15.106;2023-02-21T15:23:45;101659.59;;;15.70;65.84
54556;BME280;57291;37.520;15.106;2023-02-21T15:28:45;101660.47;;;15.65;64.52
54556;BME280;57291;37.520;15.106;2023-02-21T15:31:12;101664.34;;;15.64;64.62
54556;BME280;57291;37.520;15.106;2023-02-21T15:33:42;101662.81;;;15.58;65.04
54556;BME280;57291;37.520;15.106;2023-02-21T15:36:21;101662.94;;;15.53;65.48
54556;BME280;57291;37.520;15.106;2023-02-21T15:39:05;101662.72;;;15.49;65.72
54556;BME280;57291;37.520;15.106;2023-02-21T15:41:44;101658.69;;;15.47;65.92
54556;BME280;57291;37.520;15.106;2023-02-21T15:44:20;101649.16;;;15.44;65.52
54556;BME280;57291;37.520;15.106;2023-02-21T15:49:21;101655.75;;;15.43;62.12
54556;BME280;57291;37.520;15.106;2023-02-21T15:51:50;101663.53;;;15.36;61.16
54556;BME280;57291;37.520;15.106;2023-02-21T15:54:44;101666.06;;;15.33;59.46
54556;BME280;57291;37.520;15.106;2023-02-21T15:57:23;101659.38;;;15.25;59.08
54556;BME280;57291;37.520;15.106;2023-02-21T16:00:29;101661.72;;;15.18;59.28
54556;BME280;57291;37.520;15.106;2023-02-21T16:03:35;101658.66;;;15.19;58.41
54556;BME280;57291;37.520;15.106;2023-02-21T16:08:49;101662.13;;;15.11;58.51
54556;BME280;57291;37.520;15.106;2023-02-21T16:11:17;101665.06;;;15.01;58.07